NFTF/TBU METAR and TAF weather

Enter ICAO airport designator
Station Type Date Time Source
NFTF METAR 2020/11/28 20:00 UTC NOAA

NFTF 282000Z 29016KT 9999 FEW013 27/21 Q1009


Station Type Date Time Source
NFTF Decoded METAR 2020/11/28 20:00 UTC NOAA

Fua'Amotu, Tonga (NFTF) 21-14S 175-09W 41M
Nov 28, 2020 - 03:00 PM EST / 2020.11.28 2000 UTC
Wind: from the WNW (290 degrees) at 18 MPH (16 KT):0
Visibility: greater than 7 mile(s):0
Sky conditions: mostly clear
Temperature: 80 F (27 C)
Dew Point: 69 F (21 C)
Relative Humidity: 69%
Pressure (altimeter): 29.80 in. Hg (1009 hPa)
ob: NFTF 282000Z 29016KT 9999 FEW013 27/21 Q1009
cycle: 20

Station Type Date Time Source
NFTF TAF 2020/11/28 18:03 UTC NOAA

TAF NFTF 281700Z 2818/2918 27010KT 9999 FEW016

Example: see airport list